»·PEaware :: N5MW KPSC-KBFI

N5MW :: KPSC-KBFI

FLIGHT INFORMATION

Flight Status: Arrived
Operator: Privately registered:
United States
More flights under this callsign
Pilot: Max W. (2591)
Aircraft: BOEING 737-200
(B732)
More flights by this aircraft type
Origin: KPSC Tri-Cities
United States
Destination: KBFI Boeing Field/King Co Intl
United States
More flights between these airports :: More routes between these airports
Route: +YKM V4 CHINS CHINS3
File this flight plan on PilotEdge
Remarks:
Altitude:
(Current/Filed)
16,000ft
Speed:
(Current/Filed)
450kts
Departed: 05-Oct-18 04:16 PM
Arrived: 05-Oct-18 04:54 PM
Distance/Time
Traveled:
151nm/0:38
Distance/Time
To Go:
Arrived

Flight Plot

Page will automatically refresh every two minutes.

Flight plan parsing failed; only flown route is shown


Map Options




Map Legend


Flown Route
Filed Route
Departure Airport
Arrival Airport
Navaid (VOR, NDB)
Fix

Horizontal Profiles

Position Reports

Time Latitude Longitude Heading Altitude Ground
Speed
05-Oct-18 15:11 46.258970 -119.113129 268 416ft 0kts
05-Oct-18 15:12 46.258970 -119.113129 268 416ft 0kts
05-Oct-18 15:13 46.258970 -119.113129 268 416ft 0kts
05-Oct-18 15:14 46.258970 -119.113129 268 416ft 0kts
05-Oct-18 15:15 46.258970 -119.113129 268 416ft 0kts
05-Oct-18 15:16 46.258970 -119.113129 268 416ft 0kts
05-Oct-18 15:17 46.258970 -119.113129 268 416ft 0kts
05-Oct-18 15:18 46.258970 -119.113129 268 416ft 0kts
05-Oct-18 15:19 46.258970 -119.113129 268 416ft 0kts
05-Oct-18 15:20 46.258970 -119.113129 268 416ft 0kts
05-Oct-18 15:21 46.258970 -119.113129 268 416ft 0kts
05-Oct-18 15:22 46.258970 -119.113129 268 416ft 0kts
05-Oct-18 15:23 46.258970 -119.113129 268 416ft 0kts
05-Oct-18 15:24 46.258970 -119.113129 268 416ft 0kts
05-Oct-18 15:25 46.258970 -119.113129 268 416ft 0kts
05-Oct-18 15:26 46.258970 -119.113129 268 416ft 0kts
05-Oct-18 15:27 46.258970 -119.113129 268 416ft 0kts
05-Oct-18 15:28 46.258970 -119.113129 268 416ft 0kts
05-Oct-18 15:29 46.258970 -119.113129 268 416ft 0kts
05-Oct-18 15:30 46.258970 -119.113129 268 416ft 0kts
05-Oct-18 15:31 46.258970 -119.113129 268 416ft 0kts
05-Oct-18 15:32 46.258970 -119.113129 268 416ft 0kts
05-Oct-18 15:33 46.258970 -119.113129 268 416ft 0kts
05-Oct-18 15:34 46.258970 -119.113129 268 416ft 0kts
05-Oct-18 15:35 46.258970 -119.113129 268 416ft 0kts
05-Oct-18 15:36 46.258970 -119.113129 268 416ft 0kts
05-Oct-18 15:37 46.258970 -119.113129 268 416ft 0kts
05-Oct-18 15:38 46.258970 -119.113129 268 416ft 0kts
05-Oct-18 15:39 46.258970 -119.113129 268 416ft 0kts
05-Oct-18 15:40 46.258970 -119.113129 268 416ft 0kts
05-Oct-18 15:41 46.258970 -119.113129 268 416ft 0kts
05-Oct-18 15:42 46.258970 -119.113129 268 416ft 0kts
05-Oct-18 15:43 46.258970 -119.113129 268 416ft 0kts
05-Oct-18 15:44 46.258970 -119.113129 268 416ft 0kts
05-Oct-18 15:45 46.258970 -119.113129 268 416ft 0kts
05-Oct-18 15:46 46.258970 -119.113129 268 416ft 0kts
05-Oct-18 15:47 46.258970 -119.113129 268 416ft 0kts
05-Oct-18 15:48 46.258970 -119.113129 268 416ft 0kts
05-Oct-18 15:49 46.258970 -119.113129 268 416ft 0kts
05-Oct-18 15:50 46.258970 -119.113129 268 416ft 0kts
05-Oct-18 15:51 46.258970 -119.113129 268 416ft 0kts
05-Oct-18 15:52 46.258971 -119.113099 263 416ft 2kts
05-Oct-18 15:53 46.259448 -119.113047 153 416ft 2kts
05-Oct-18 15:54 46.259572 -119.113136 153 416ft 0kts
05-Oct-18 15:55 46.259572 -119.113135 153 416ft 0kts
05-Oct-18 15:56 46.259571 -119.113135 153 416ft 0kts
05-Oct-18 15:57 46.259571 -119.113135 153 416ft 0kts
05-Oct-18 15:58 46.259571 -119.113135 153 416ft 0kts
05-Oct-18 15:59 46.259571 -119.113135 153 416ft 0kts
05-Oct-18 16:00 46.259332 -119.113055 166 416ft 1kts
05-Oct-18 16:01 46.259177 -119.112470 59 416ft 0kts
05-Oct-18 16:02 46.259177 -119.112470 59 416ft 0kts
05-Oct-18 16:03 46.259177 -119.112470 59 416ft 0kts
05-Oct-18 16:04 46.259177 -119.112470 59 416ft 0kts
05-Oct-18 16:05 46.259177 -119.112470 59 416ft 0kts
05-Oct-18 16:06 46.259177 -119.112470 59 416ft 0kts
05-Oct-18 16:07 46.259177 -119.112470 59 416ft 0kts
05-Oct-18 16:08 46.259177 -119.112470 59 416ft 0kts
05-Oct-18 16:09 46.258713 -119.109307 131 416ft 7kts
05-Oct-18 16:10 46.257779 -119.108016 96 416ft 5kts
05-Oct-18 16:11 46.257779 -119.107913 80 416ft 0kts
05-Oct-18 16:12 46.257779 -119.107913 80 416ft 0kts
05-Oct-18 16:13 46.257779 -119.107913 80 416ft 0kts
05-Oct-18 16:14 46.257779 -119.107913 80 416ft 0kts
05-Oct-18 16:15 46.258285 -119.107056 28 416ft 8kts
05-Oct-18 16:16 46.258822 -119.107374 319 416ft 0kts
05-Oct-18 16:17 46.258822 -119.107374 319 416ft 0kts
05-Oct-18 16:18 46.269304 -119.122191 315 763ft 161kts
05-Oct-18 16:19 46.303357 -119.171244 317 3513ft 254kts
05-Oct-18 16:20 46.341377 -119.248017 287 8558ft 267kts
05-Oct-18 16:21 46.363344 -119.357581 285 11316ft 312kts
05-Oct-18 16:22 46.385500 -119.470233 284 14503ft 295kts
05-Oct-18 16:23 46.408191 -119.587168 284 15998ft 325kts
05-Oct-18 16:24 46.431939 -119.712488 283 15985ft 320kts
05-Oct-18 16:25 46.454684 -119.833509 283 15983ft 306kts
05-Oct-18 16:26 46.476683 -119.950190 283 15978ft 296kts
05-Oct-18 16:27 46.497282 -120.063843 278 15932ft 289kts
05-Oct-18 16:28 46.519117 -120.175252 284 15983ft 291kts
05-Oct-18 16:29 46.541435 -120.289842 284 15982ft 298kts
05-Oct-18 16:30 46.572534 -120.401741 299 15981ft 305kts
05-Oct-18 16:31 46.616782 -120.507582 299 16007ft 308kts
05-Oct-18 16:32 46.659867 -120.615301 289 16006ft 308kts
05-Oct-18 16:33 46.709419 -120.714779 303 16011ft 313kts
05-Oct-18 16:34 46.759907 -120.817100 302 16007ft 312kts
05-Oct-18 16:35 46.808174 -120.919445 301 16004ft 308kts
05-Oct-18 16:36 46.855853 -121.022089 301 16001ft 306kts
05-Oct-18 16:37 46.903166 -121.124681 300 15998ft 304kts
05-Oct-18 16:38 46.942220 -121.209757 300 15998ft 303kts
05-Oct-18 16:39 46.994768 -121.324847 300 13759ft 290kts
05-Oct-18 16:40 47.031794 -121.406440 301 12173ft 286kts
05-Oct-18 16:41 47.081602 -121.515914 301 10977ft 255kts
05-Oct-18 16:42 47.112849 -121.584412 302 10988ft 247kts
05-Oct-18 16:43 47.154429 -121.676202 300 11003ft 283kts
05-Oct-18 16:44 47.182997 -121.769172 273 10114ft 268kts
05-Oct-18 16:45 47.188641 -121.875272 275 7046ft 267kts
05-Oct-18 16:46 47.193895 -121.979021 275 5959ft 221kts
05-Oct-18 16:47 47.198613 -122.073357 276 5851ft 230kts
05-Oct-18 16:48 47.246715 -122.113380 1 4759ft 226kts
05-Oct-18 16:49 47.306962 -122.116745 333 4038ft 200kts
05-Oct-18 16:50 47.349151 -122.149982 330 3961ft 161kts
05-Oct-18 16:51 47.391745 -122.185801 330 3030ft 182kts
05-Oct-18 16:52 47.435446 -122.222573 330 1997ft 182kts
05-Oct-18 16:53 47.477114 -122.257703 330 1029ft 147kts
05-Oct-18 16:54 47.508888 -122.284777 332 284ft 126kts
05-Oct-18 16:55 47.536004 -122.307580 331 27ft 79kts
05-Oct-18 16:56 47.540696 -122.310516 62 27ft 3kts
05-Oct-18 16:57 47.539684 -122.307913 152 27ft 11kts
05-Oct-18 16:58 47.536475 -122.305183 139 27ft 10kts
05-Oct-18 16:59 47.536295 -122.304214 79 27ft 0kts
05-Oct-18 17:00 47.536295 -122.304214 79 27ft 0kts

Navigation Log

Ident Type
Flight plan parsing failed, navigation log unavailable